Time;durP1;ratioP1;P1;durP2;ratioP2;P2;SDS_P1;SDS_P2;PMS_P1;PMS_P2;Temp;Humidity;BMP_temperature;BMP_pressure;BME280_temperature;BME280_humidity;BME280_pressure;Samples;Min_cycle;Max_cycle;Signal;HPM_P1;HPM_P2
2021/04/13 00:04:45;;;;;;;12.90;8.07;;;;;;;0.88;69.33;101767.56;10355265;28;20237;-74
2021/04/13 00:09:48;;;;;;;14.93;7.57;;;;;;;0.88;69.45;101774.63;10353561;28;20242;-74
2021/04/13 00:14:53;;;;;;;14.73;8.03;;;;;;;0.82;69.37;101768.56;10352073;28;20230;-74
2021/04/13 00:20:05;;;;;;;13.57;7.27;;;;;;;0.78;69.63;101772.16;10351772;28;20734;-74
2021/04/13 00:25:10;;;;;;;14.33;7.43;;;;;;;0.77;69.58;101767.78;10354616;28;20627;-74
2021/04/13 00:30:16;;;;;;;15.83;7.67;;;;;;;0.78;69.51;101768.63;10351488;28;20246;-72
2021/04/13 00:35:29;;;;;;;14.23;7.23;;;;;;;0.77;69.33;101773.06;10350456;28;20285;-74
2021/04/13 00:40:32;;;;;;;16.07;8.50;;;;;;;0.68;69.61;101767.91;10351991;28;20238;-74
2021/04/13 00:45:37;;;;;;;18.00;8.07;;;;;;;0.60;70.03;101769.81;10360657;28;20245;-74
2021/04/13 00:50:42;;;;;;;17.20;8.90;;;;;;;0.63;70.09;101768.91;10353334;28;20230;-74
2021/04/13 00:55:53;;;;;;;18.30;9.30;;;;;;;0.64;69.81;101768.03;10312877;28;20238;-73
2021/04/13 01:00:58;;;;;;;15.67;8.27;;;;;;;0.54;69.92;101777.88;10311492;28;20235;-73
2021/04/13 01:06:02;;;;;;;20.87;9.50;;;;;;;0.36;70.55;101776.44;10308091;28;20233;-72
2021/04/13 01:11:11;;;;;;;23.93;9.87;;;;;;;0.35;70.66;101772.00;10286992;28;20250;-75
2021/04/13 01:16:14;;;;;;;13.33;7.43;;;;;;;0.25;70.92;101767.75;10288467;28;20322;-74
2021/04/13 01:21:34;;;;;;;17.23;7.70;;;;;;;0.05;71.44;101765.44;10324820;28;20227;-74
2021/04/13 01:26:42;;;;;;;18.37;10.00;;;;;;;-0.02;71.65;101764.69;10306648;28;20798;-73
2021/04/13 01:31:52;;;;;;;17.33;8.43;;;;;;;-0.02;71.68;101767.31;10308675;28;20238;-73
2021/04/13 01:37:10;;;;;;;16.33;7.33;;;;;;;-0.07;71.93;101761.22;10307986;28;20857;-74
2021/04/13 01:42:13;;;;;;;12.10;6.13;;;;;;;-0.21;72.38;101768.50;10306891;28;20238;-74
2021/04/13 01:47:17;;;;;;;17.70;9.70;;;;;;;-0.19;72.47;101753.47;10307708;28;20243;-74
2021/04/13 01:52:27;;;;;;;16.00;8.00;;;;;;;-0.16;72.55;101756.09;10306529;28;20838;-73
2021/04/13 01:57:40;;;;;;;19.20;9.57;;;;;;;-0.09;72.18;101753.31;10306480;28;20239;-72
2021/04/13 02:02:50;;;;;;;20.43;9.27;;;;;;;-0.13;72.01;101758.69;10306714;28;21523;-72
2021/04/13 02:08:02;;;;;;;18.93;10.07;;;;;;;-0.05;71.86;101759.44;10306713;28;20715;-74
2021/04/13 02:13:08;;;;;;;20.77;9.27;;;;;;;-0.14;72.04;101767.47;10306898;28;20622;-73
2021/04/13 02:18:17;;;;;;;16.77;9.70;;;;;;;-0.13;72.05;101774.53;10340909;28;20237;-73
2021/04/13 02:23:26;;;;;;;15.43;8.57;;;;;;;-0.05;71.66;101770.00;10308210;28;20734;-73
2021/04/13 02:28:29;;;;;;;15.70;8.90;;;;;;;-0.09;71.73;101765.66;10306168;28;20829;-74
2021/04/13 02:33:34;;;;;;;18.70;9.13;;;;;;;-0.07;71.91;101770.03;10337828;28;20238;-73
2021/04/13 02:38:40;;;;;;;17.37;8.33;;;;;;;-0.09;72.00;101770.94;10346016;28;20226;-73
2021/04/13 02:43:46;;;;;;;18.17;9.27;;;;;;;-0.02;71.69;101769.97;10349238;28;20230;-73
2021/04/13 02:48:54;;;;;;;15.53;8.53;;;;;;;0.01;71.64;101769.91;10352987;28;20234;-73
2021/04/13 02:53:59;;;;;;;13.83;8.30;;;;;;;0.00;71.22;101768.19;10352974;28;20242;-73
2021/04/13 02:59:15;;;;;;;16.77;8.00;;;;;;;-0.03;71.58;101773.47;10352783;28;21439;-73
2021/04/13 03:04:18;;;;;;;19.13;8.47;;;;;;;-0.03;71.33;101773.47;10353675;28;20723;-73
2021/04/13 03:09:24;;;;;;;16.13;9.37;;;;;;;-0.06;71.52;101781.47;10352198;28;20237;-73
2021/04/13 03:14:27;;;;;;;14.00;8.37;;;;;;;-0.04;71.64;101781.44;10353606;28;20249;-74
2021/04/13 03:19:30;;;;;;;14.83;7.97;;;;;;;-0.04;71.25;101784.09;10351546;28;20241;-73
2021/04/13 03:24:37;;;;;;;17.30;9.07;;;;;;;-0.08;72.03;101785.91;10351624;28;20727;-75
2021/04/13 03:29:46;;;;;;;15.17;8.27;;;;;;;-0.04;72.08;101777.03;10352487;28;20226;-73
2021/04/13 03:34:48;;;;;;;12.67;7.57;;;;;;;0.03;72.10;101783.97;10351411;28;21490;-74
2021/04/13 03:39:53;;;;;;;12.17;7.83;;;;;;;0.11;71.86;101781.19;10351178;28;20260;-74
2021/04/13 03:44:57;;;;;;;18.33;8.50;;;;;;;0.20;71.66;101791.66;10350034;28;20246;-74
2021/04/13 03:50:03;;;;;;;16.00;7.77;;;;;;;0.26;71.25;101785.38;10349870;28;20238;-73
2021/04/13 03:55:19;;;;;;;16.10;8.10;;;;;;;0.26;71.20;101796.84;10351775;28;20239;-74
2021/04/13 04:00:24;;;;;;;16.97;8.20;;;;;;;0.22;71.18;101788.97;10345165;28;20234;-74
2021/04/13 04:05:43;;;;;;;15.70;7.80;;;;;;;0.20;71.44;101802.22;10335338;28;20234;-72
2021/04/13 04:10:51;;;;;;;15.23;8.90;;;;;;;0.19;71.32;101797.81;10344677;28;20234;-73
2021/04/13 04:16:07;;;;;;;17.47;8.43;;;;;;;0.15;71.63;101804.06;10335993;28;20600;-72
2021/04/13 04:21:16;;;;;;;18.70;9.10;;;;;;;0.07;72.22;101798.88;10310403;28;20711;-73
2021/04/13 04:26:22;;;;;;;18.50;8.60;;;;;;;0.07;72.40;101806.81;10309456;28;20611;-74
2021/04/13 04:31:36;;;;;;;14.37;8.23;;;;;;;0.25;72.34;101816.25;10329914;28;20235;-73
2021/04/13 04:36:41;;;;;;;16.33;8.17;;;;;;;0.31;71.97;101821.44;10350055;28;20229;-72
2021/04/13 04:41:45;;;;;;;20.93;8.83;;;;;;;0.09;72.94;101831.44;10349542;28;20230;-74
2021/04/13 04:46:47;;;;;;;15.87;7.30;;;;;;;-0.24;73.91;101829.28;10357090;28;20234;-73
2021/04/13 04:51:51;;;;;;;14.33;7.67;;;;;;;-0.00;73.21;101835.97;10363993;28;21168;-72
2021/04/13 04:56:55;;;;;;;15.53;8.33;;;;;;;0.09;72.97;101842.03;10349971;28;20630;-72
2021/04/13 05:01:57;;;;;;;10.10;6.13;;;;;;;0.02;73.53;101847.41;10350767;28;20233;-72
2021/04/13 05:06:59;;;;;;;15.00;6.47;;;;;;;0.04;73.32;101843.84;10348485;28;20676;-73
2021/04/13 05:12:02;;;;;;;15.73;7.53;;;;;;;0.11;73.51;101845.53;10348383;28;20238;-74
2021/04/13 05:17:04;;;;;;;12.97;7.20;;;;;;;0.21;73.49;101850.66;10348886;28;20241;-74
2021/04/13 05:22:06;;;;;;;15.93;6.23;;;;;;;0.19;73.63;101853.31;10348793;28;20689;-72
2021/04/13 05:27:12;;;;;;;13.00;7.57;;;;;;;0.16;73.54;101859.56;10348714;28;20242;-72
2021/04/13 05:32:13;;;;;;;12.83;6.63;;;;;;;0.12;74.00;101871.03;10348118;28;20241;-72
2021/04/13 05:37:16;;;;;;;15.83;7.00;;;;;;;0.34;73.25;101873.38;10349835;28;20239;-74
2021/04/13 05:42:22;;;;;;;12.97;8.10;;;;;;;0.45;73.13;101881.16;10347558;28;20238;-72
2021/04/13 05:47:25;;;;;;;14.13;8.70;;;;;;;0.35;73.39;101888.34;10347053;28;20235;-72
2021/04/13 05:52:27;;;;;;;15.23;8.60;;;;;;;0.49;73.10;101886.34;10348100;28;20234;-72
2021/04/13 05:57:32;;;;;;;17.37;8.93;;;;;;;0.80;72.47;101899.13;10346700;28;20247;-72
2021/04/13 06:02:36;;;;;;;18.23;7.33;;;;;;;0.74;71.99;101894.81;10347107;28;20238;-74
2021/04/13 06:07:38;;;;;;;15.07;6.90;;;;;;;0.90;72.14;101903.34;10347417;28;20245;-74
2021/04/13 06:12:41;;;;;;;12.80;7.47;;;;;;;1.14;71.39;101911.78;10347920;28;20238;-73
2021/04/13 06:17:43;;;;;;;14.63;8.33;;;;;;;1.01;71.09;101909.31;10348169;28;20658;-73
2021/04/13 06:22:45;;;;;;;14.67;8.27;;;;;;;1.43;70.55;101911.28;10355502;28;20260;-73
2021/04/13 06:27:51;;;;;;;16.57;8.30;;;;;;;1.54;70.27;101904.00;10354990;28;20226;-73
2021/04/13 06:32:54;;;;;;;28.67;12.13;;;;;;;1.91;69.79;101924.44;10356017;28;20679;-73
2021/04/13 06:38:00;;;;;;;41.17;12.00;;;;;;;2.06;69.00;101918.84;10353352;28;21467;-75
2021/04/13 06:43:15;;;;;;;18.60;8.87;;;;;;;2.27;68.86;101929.88;10352927;28;20723;-73
2021/04/13 06:48:37;;;;;;;23.93;8.80;;;;;;;2.01;69.17;101919.84;10352263;28;20238;-74
2021/04/13 06:53:59;;;;;;;25.07;10.67;;;;;;;2.70;68.51;101931.59;10352455;28;20257;-73
2021/04/13 06:59:20;;;;;;;11.90;6.67;;;;;;;3.09;67.32;101939.50;10351986;28;20241;-74
2021/04/13 07:04:31;;;;;;;14.40;5.67;;;;;;;2.98;67.75;101934.44;10352274;28;20249;-73
2021/04/13 07:09:38;;;;;;;12.00;5.03;;;;;;;3.23;67.32;101926.72;10351530;28;20233;-73
2021/04/13 07:14:51;;;;;;;10.50;5.87;;;;;;;3.03;66.71;101944.03;10357219;28;21342;-73
2021/04/13 07:19:56;;;;;;;17.07;5.57;;;;;;;3.32;66.48;101936.25;10310642;28;20239;-75
2021/04/13 07:25:02;;;;;;;10.07;4.77;;;;;;;3.43;66.41;101947.47;10311326;28;20235;-74
2021/04/13 07:30:13;;;;;;;12.55;5.65;;;;;;;3.56;66.38;101930.28;10311027;28;20231;-74
2021/04/13 07:35:19;;;;;;;10.27;4.83;;;;;;;3.90;64.85;101945.31;10311495;28;20247;-74
2021/04/13 07:40:28;;;;;;;11.35;5.93;;;;;;;3.66;67.06;101942.41;10310762;28;20742;-74
2021/04/13 07:45:42;;;;;;;18.08;6.60;;;;;;;4.25;65.33;101943.41;10312129;28;20243;-74
2021/04/13 07:51:19;;;;;;;13.65;5.82;;;;;;;4.40;64.08;101942.94;10313072;28;20617;-74
2021/04/13 07:56:32;;;;;;;12.95;5.18;;;;;;;4.19;65.36;101963.06;10310719;28;20264;-75
2021/04/13 08:01:35;;;;;;;10.77;5.33;;;;;;;4.44;63.78;101959.69;10309723;28;21894;-74
2021/04/13 08:06:50;;;;;;;9.95;5.45;;;;;;;4.98;61.99;101970.38;10311582;28;20809;-75
2021/04/13 08:12:09;;;;;;;12.77;5.55;;;;;;;5.54;61.82;101964.13;10346496;28;20230;-74
2021/04/13 08:17:17;;;;;;;12.60;5.40;;;;;;;6.55;58.43;101970.16;10347851;28;20230;-74
2021/04/13 08:42:05;;;;;;;6.90;4.22;;;;;;;6.88;56.44;101959.97;8853145;32;20554;-68
2021/04/13 08:47:12;;;;;;;10.93;3.97;;;;;;;6.47;56.91;101964.25;10469257;28;20621;-70
2021/04/13 08:52:21;;;;;;;10.05;3.53;;;;;;;7.18;54.88;101971.22;10467198;28;20229;-69
2021/04/13 08:57:35;;;;;;;6.20;3.95;;;;;;;7.32;53.83;101978.66;10467949;28;20244;-70
2021/04/13 09:02:38;;;;;;;10.82;4.35;;;;;;;5.54;59.27;101966.78;10457122;28;20343;-70
2021/04/13 09:07:52;;;;;;;7.05;3.60;;;;;;;4.78;61.15;101971.03;10465151;28;20319;-70
2021/04/13 09:13:06;;;;;;;10.27;3.42;;;;;;;6.70;56.96;101966.03;10463945;28;20228;-69
2021/04/13 09:18:11;;;;;;;4.18;2.30;;;;;;;9.07;50.31;101965.31;10465804;28;20251;-70
2021/04/13 09:23:25;;;;;;;7.75;1.75;;;;;;;7.15;48.06;101960.66;10463267;28;20224;-71
2021/04/13 09:28:47;;;;;;;5.35;1.63;;;;;;;5.86;49.72;101954.97;10464342;28;20224;-71
2021/04/13 09:33:49;;;;;;;4.65;1.95;;;;;;;7.02;49.83;101957.63;10454826;28;20220;-71
2021/04/13 09:39:11;;;;;;;3.35;1.90;;;;;;;9.61;45.60;101951.88;10464322;28;20233;-70
2021/04/13 09:44:37;;;;;;;4.47;2.28;;;;;;;8.89;46.84;101956.38;10464658;28;20232;-70
2021/04/13 09:49:57;;;;;;;7.05;1.88;;;;;;;9.80;42.62;101943.72;10455470;28;20244;-70
2021/04/13 09:55:12;;;;;;;3.53;1.83;;;;;;;10.21;41.81;101948.72;10431650;28;20233;-70
2021/04/13 10:00:49;;;;;;;5.82;1.75;;;;;;;10.02;42.08;101940.78;10412746;28;20237;-70
2021/04/13 10:05:54;;;;;;;3.95;1.60;;;;;;;10.20;42.98;101926.34;10395696;28;20233;-71
2021/04/13 10:11:29;;;;;;;2.38;1.70;;;;;;;9.42;43.24;101914.41;10394330;28;20814;-72
2021/04/13 10:16:39;;;;;;;7.70;2.13;;;;;;;9.35;43.88;101912.97;10392428;28;20907;-72
2021/04/13 10:22:26;;;;;;;5.85;1.90;;;;;;;9.68;43.48;101913.91;10386256;28;20237;-71
2021/04/13 10:28:15;;;;;;;4.45;1.40;;;;;;;10.36;40.90;101905.72;10350633;28;20241;-70
2021/04/13 10:33:42;;;;;;;3.90;1.63;;;;;;;9.90;40.93;101900.22;10394222;28;20241;-72
2021/04/13 10:39:07;;;;;;;4.68;1.60;;;;;;;9.20;42.15;101907.44;10393028;28;20245;-71
2021/04/13 10:44:36;;;;;;;5.70;1.67;;;;;;;10.01;38.26;101904.13;10393625;28;20233;-72
2021/04/13 10:50:10;;;;;;;5.32;1.70;;;;;;;11.54;36.26;101900.66;10391906;28;20724;-72
2021/04/13 10:55:34;;;;;;;1.27;1.17;;;;;;;10.48;33.49;101903.34;10385466;28;20240;-70
2021/04/13 11:00:48;;;;;;;3.10;1.48;;;;;;;11.22;36.01;101883.81;10393796;28;20237;-70
2021/04/13 11:06:31;;;;;;;4.93;1.63;;;;;;;12.72;35.39;101890.47;10394077;28;20240;-70
2021/04/13 11:12:26;;;;;;;3.65;1.48;;;;;;;10.72;32.88;101901.91;10392692;28;20689;-70
2021/04/13 11:17:50;;;;;;;3.38;1.45;;;;;;;11.88;32.12;101882.44;10428301;28;20247;-71
2021/04/13 11:23:35;;;;;;;2.72;1.70;;;;;;;11.32;35.88;101881.41;10434345;28;20233;-71
2021/04/13 11:29:12;;;;;;;3.42;1.38;;;;;;;14.44;30.56;101874.94;10414157;28;20375;-70
2021/04/13 11:34:56;;;;;;;2.90;1.50;;;;;;;15.89;28.80;101862.88;10433633;28;20229;-69
2021/04/13 11:40:15;;;;;;;2.10;1.33;;;;;;;13.12;32.21;101874.31;10410979;28;20232;-69
2021/04/13 11:45:28;;;;;;;3.47;1.60;;;;;;;14.15;31.17;101865.25;10430171;28;20609;-70
2021/04/13 11:50:36;;;;;;;6.15;1.50;;;;;;;16.33;25.79;101863.84;10429975;28;20236;-70
2021/04/13 11:55:48;;;;;;;3.25;1.50;;;;;;;12.67;32.01;101852.19;10432275;28;20221;-70
2021/04/13 12:00:52;;;;;;;2.30;1.67;;;;;;;12.00;33.42;101861.94;10429264;28;20236;-69
2021/04/13 12:05:57;;;;;;;3.95;1.80;;;;;;;12.67;31.54;101867.47;10430281;28;20248;-70
2021/04/13 12:11:00;;;;;;;2.42;1.35;;;;;;;15.23;26.35;101854.50;10404505;28;20234;-70
2021/04/13 12:16:04;;;;;;;3.80;1.55;;;;;;;14.51;29.82;101851.88;10399281;28;20246;-70
2021/04/13 12:21:48;;;;;;;1.40;1.30;;;;;;;13.40;30.36;101848.16;10391647;28;20629;-72
2021/04/13 12:26:50;;;;;;;5.22;1.50;;;;;;;14.97;30.85;101835.72;10342201;28;20232;-72
2021/04/13 12:32:26;;;;;;;1.95;1.10;;;;;;;15.13;26.50;101842.66;10404756;28;20237;-71
2021/04/13 12:37:38;;;;;;;4.35;1.70;;;;;;;15.11;27.13;101840.09;10391361;28;20615;-72
2021/04/13 12:42:49;;;;;;;1.48;1.30;;;;;;;14.00;29.33;101835.78;10390816;28;20241;-70
2021/04/13 12:47:55;;;;;;;2.20;1.27;;;;;;;14.24;26.89;101841.25;10390267;28;20233;-72
2021/04/13 12:52:58;;;;;;;5.15;1.42;;;;;;;12.60;31.13;101843.63;10375059;28;20268;-70
2021/04/13 12:58:08;;;;;;;3.05;1.40;;;;;;;11.53;32.57;101846.94;10387094;28;20237;-70
2021/04/13 13:03:16;;;;;;;2.63;1.30;;;;;;;12.81;29.05;101835.09;10389622;28;21467;-69
2021/04/13 13:08:21;;;;;;;1.65;1.13;;;;;;;13.51;28.31;101829.34;10405993;28;20549;-70
2021/04/13 13:13:28;;;;;;;1.67;0.80;;;;;;;15.60;24.43;101821.84;10411133;28;20601;-70
2021/04/13 13:18:42;;;;;;;2.88;0.93;;;;;;;15.59;25.01;101809.28;10388593;28;20245;-69
2021/04/13 13:23:49;;;;;;;2.30;1.13;;;;;;;14.59;25.78;101849.47;10400547;28;20232;-70
2021/04/13 13:28:50;;;;;;;1.75;1.13;;;;;;;14.41;25.97;101816.56;10435290;28;20616;-69
2021/04/13 13:33:56;;;;;;;2.10;1.15;;;;;;;13.88;28.44;101816.78;10435650;28;20240;-70
2021/04/13 13:38:59;;;;;;;1.98;1.15;;;;;;;13.69;27.48;101813.69;10395669;28;20261;-70
2021/04/13 13:44:01;;;;;;;3.83;1.40;;;;;;;14.89;26.30;101803.00;10395222;28;20606;-70
2021/04/13 13:49:26;;;;;;;5.28;1.30;;;;;;;15.30;25.33;101796.16;10394040;28;20244;-70
2021/04/13 13:54:30;;;;;;;2.15;1.15;;;;;;;13.56;27.51;101791.25;10392199;28;20237;-70
2021/04/13 13:59:43;;;;;;;1.55;1.40;;;;;;;13.33;30.92;101809.03;10395381;28;20240;-72
2021/04/13 14:04:46;;;;;;;3.65;1.48;;;;;;;12.59;32.97;101798.78;10395357;28;20609;-70
2021/04/13 14:09:48;;;;;;;5.05;1.67;;;;;;;12.31;33.13;101801.56;10393114;28;20612;-71
2021/04/13 14:14:50;;;;;;;4.60;1.50;;;;;;;12.41;34.21;101810.78;10410440;28;20236;-69
2021/04/13 14:19:53;;;;;;;5.28;1.45;;;;;;;12.94;32.62;101811.69;10434640;28;20270;-69
2021/04/13 14:25:06;;;;;;;3.30;1.50;;;;;;;11.94;35.46;101820.97;10428649;28;20260;-71
2021/04/13 14:30:12;;;;;;;2.13;1.20;;;;;;;12.37;36.88;101817.34;10422423;28;20241;-70
2021/04/13 14:35:15;;;;;;;3.75;1.60;;;;;;;15.23;28.92;101803.06;10429226;28;20240;-71
2021/04/13 14:40:20;;;;;;;1.85;1.40;;;;;;;16.29;29.32;101806.31;10397401;28;20241;-70
2021/04/13 14:45:28;;;;;;;3.55;1.52;;;;;;;14.92;29.27;101796.47;10414131;28;20574;-70
2021/04/13 14:50:33;;;;;;;2.42;1.35;;;;;;;10.41;37.09;101832.94;10400726;28;20222;-72
2021/04/13 14:55:35;;;;;;;4.78;2.03;;;;;;;9.53;42.54;101828.84;10390087;28;20727;-70
2021/04/13 15:00:38;;;;;;;1.55;1.45;;;;;;;8.77;45.83;101833.72;10392955;28;22016;-69
2021/04/13 15:05:45;;;;;;;1.48;1.38;;;;;;;8.50;46.65;101847.56;10392309;28;20237;-71
2021/04/13 15:10:48;;;;;;;3.58;1.48;;;;;;;8.47;46.54;101868.25;10392833;28;20234;-70
2021/04/13 15:15:50;;;;;;;1.10;1.10;;;;;;;8.42;48.40;101873.81;10400049;28;20241;-71
2021/04/13 15:20:55;;;;;;;2.88;1.30;;;;;;;8.55;46.55;101879.44;10409637;28;20278;-70
2021/04/13 15:25:57;;;;;;;3.58;1.38;;;;;;;8.23;48.00;101880.97;10393485;28;20237;-73
2021/04/13 15:30:59;;;;;;;2.20;1.90;;;;;;;7.86;47.34;101886.22;10395662;28;20229;-72
2021/04/13 15:36:07;;;;;;;3.08;1.50;;;;;;;7.80;47.60;101874.97;10391234;28;20229;-72
2021/04/13 15:41:16;;;;;;;4.28;1.65;;;;;;;8.20;47.13;101865.03;10391643;28;20249;-73
2021/04/13 15:46:20;;;;;;;2.90;1.58;;;;;;;8.55;46.68;101850.84;10390677;28;20229;-71
2021/04/13 15:51:24;;;;;;;2.33;1.63;;;;;;;9.07;45.09;101850.03;10406698;28;20256;-71
2021/04/13 15:56:28;;;;;;;1.40;1.30;;;;;;;11.06;41.54;101838.09;10394849;28;20757;-70
2021/04/13 16:01:30;;;;;;;1.42;1.33;;;;;;;12.63;37.49;101836.31;10398322;28;20716;-70
2021/04/13 16:06:33;;;;;;;2.03;1.50;;;;;;;12.61;36.60;101849.88;10406141;28;20248;-72
2021/04/13 16:11:36;;;;;;;2.65;1.30;;;;;;;11.18;38.94;101848.13;10396444;28;20317;-71
2021/04/13 16:16:39;;;;;;;4.03;1.73;;;;;;;10.20;41.51;101843.09;10404885;28;20256;-71
2021/04/13 16:21:44;;;;;;;3.65;2.10;;;;;;;9.40;44.11;101850.09;10431525;28;20279;-71
2021/04/13 16:26:50;;;;;;;3.55;2.00;;;;;;;10.54;42.24;101847.41;10432971;28;20241;-70
2021/04/13 16:31:55;;;;;;;3.78;1.85;;;;;;;10.47;43.50;101866.66;10431324;28;20236;-71
2021/04/13 16:37:03;;;;;;;1.40;1.30;;;;;;;9.37;45.22;101862.81;10427944;28;20240;-71
2021/04/13 16:42:10;;;;;;;3.38;1.45;;;;;;;8.64;45.07;101857.59;10431174;28;20622;-71
2021/04/13 16:47:15;;;;;;;2.50;1.23;;;;;;;9.06;44.88;101853.69;10435757;28;20237;-71
2021/04/13 16:52:23;;;;;;;2.67;1.42;;;;;;;10.97;40.97;101854.75;10418701;28;20222;-70
2021/04/13 16:57:25;;;;;;;1.95;1.70;;;;;;;10.66;41.05;101853.88;10379372;28;20235;-70
2021/04/13 17:02:40;;;;;;;2.70;1.70;;;;;;;10.29;41.55;101853.31;10393409;28;20615;-70
2021/04/13 17:07:50;;;;;;;4.90;2.50;;;;;;;9.64;43.42;101855.97;10396355;28;20241;-70
2021/04/13 17:12:58;;;;;;;2.70;1.50;;;;;;;8.86;44.64;101859.16;10394292;28;20228;-70
2021/04/13 17:18:06;;;;;;;1.83;1.60;;;;;;;8.35;45.78;101858.97;10435917;28;20245;-70
2021/04/13 17:23:17;;;;;;;4.75;2.22;;;;;;;7.94;47.15;101857.31;10429413;28;20221;-71
2021/04/13 17:28:23;;;;;;;3.13;1.65;;;;;;;8.02;47.80;101859.63;10451517;28;20323;-70
2021/04/13 17:33:26;;;;;;;2.03;1.75;;;;;;;8.13;46.62;101845.75;10421259;28;20225;-70
2021/04/13 17:38:34;;;;;;;3.22;1.20;;;;;;;7.58;46.09;101849.19;10416254;28;20620;-71
2021/04/13 17:43:42;;;;;;;2.42;1.27;;;;;;;7.48;46.67;101853.19;10399616;28;20244;-71
2021/04/13 17:48:45;;;;;;;7.82;1.52;;;;;;;7.40;46.83;101853.53;10413322;28;20244;-70
2021/04/13 17:53:51;;;;;;;3.33;1.50;;;;;;;7.06;47.39;101844.31;10397464;28;20775;-71
2021/04/13 17:58:55;;;;;;;1.73;1.50;;;;;;;6.72;48.48;101852.88;10397099;28;20238;-71
2021/04/13 18:04:02;;;;;;;1.65;1.20;;;;;;;6.47;49.81;101863.66;10393527;28;20232;-71
2021/04/13 18:09:12;;;;;;;3.78;1.42;;;;;;;6.16;50.91;101867.56;10409397;28;20237;-71
2021/04/13 18:14:20;;;;;;;2.83;1.35;;;;;;;6.30;51.33;101877.69;10404414;28;20237;-70
2021/04/13 18:19:29;;;;;;;2.20;1.40;;;;;;;6.31;51.02;101876.78;10437085;28;20587;-70
2021/04/13 18:24:36;;;;;;;1.38;1.02;;;;;;;5.94;51.84;101883.53;10433902;28;20228;-71
2021/04/13 18:29:42;;;;;;;3.05;1.58;;;;;;;5.80;53.17;101895.66;10416269;28;20706;-70
2021/04/13 18:34:50;;;;;;;1.30;1.20;;;;;;;6.10;53.89;101923.84;10396228;28;20276;-69
2021/04/13 18:39:59;;;;;;;2.13;1.60;;;;;;;6.11;53.86;101944.25;10395217;28;21648;-70
2021/04/13 18:45:10;;;;;;;1.95;1.58;;;;;;;5.83;57.04;101955.06;10395447;28;20773;-69
2021/04/13 18:50:18;;;;;;;2.13;1.48;;;;;;;5.25;65.38;101957.13;10396373;28;20241;-69
2021/04/13 18:55:29;;;;;;;2.17;1.85;;;;;;;4.31;70.70;101943.22;10393833;28;20244;-70
2021/04/13 19:00:34;;;;;;;3.90;1.83;;;;;;;4.09;73.86;101948.31;10394504;28;20238;-70
2021/04/13 19:05:37;;;;;;;3.37;2.37;;;;;;;4.13;74.89;101934.00;10393985;28;20238;-70
2021/04/13 19:10:50;;;;;;;2.78;2.35;;;;;;;4.24;75.78;101944.31;10395018;28;20252;-69
2021/04/13 19:15:54;;;;;;;2.57;2.20;;;;;;;4.18;75.90;101940.06;10402378;28;20726;-69
2021/04/13 19:21:02;;;;;;;4.07;1.93;;;;;;;4.18;76.27;101940.91;10411918;28;20263;-70
2021/04/13 19:26:11;;;;;;;5.25;2.80;;;;;;;4.08;74.00;101934.13;10412074;28;20230;-71
2021/04/13 19:31:18;;;;;;;3.40;2.20;;;;;;;3.47;74.47;101946.47;10432310;28;20239;-70
2021/04/13 19:36:28;;;;;;;4.00;2.57;;;;;;;3.46;75.42;101944.75;10434360;28;20233;-71
2021/04/13 19:41:45;;;;;;;2.40;2.20;;;;;;;3.47;76.26;101957.09;10434965;28;20637;-70
2021/04/13 19:46:48;;;;;;;8.57;2.72;;;;;;;3.24;76.09;101953.25;10421412;28;20228;-70
2021/04/13 19:51:54;;;;;;;3.90;2.40;;;;;;;3.14;75.47;101954.41;10409219;28;20233;-70
2021/04/13 19:56:59;;;;;;;4.00;2.00;;;;;;;2.91;76.10;101952.31;10421168;28;20238;-69
2021/04/13 20:02:03;;;;;;;2.60;2.30;;;;;;;2.71;76.41;101949.25;10414605;28;20233;-69
2021/04/13 20:07:05;;;;;;;2.47;2.00;;;;;;;2.48;76.91;101945.31;10409368;28;20245;-70
2021/04/13 20:12:13;;;;;;;5.20;2.50;;;;;;;2.54;76.74;101952.28;10390187;28;20242;-70
2021/04/13 20:17:22;;;;;;;5.77;2.73;;;;;;;2.65;76.65;101952.91;10395140;28;20260;-70
2021/04/13 20:22:26;;;;;;;4.93;3.33;;;;;;;2.63;75.77;101949.41;10390949;28;20354;-70
2021/04/13 20:27:33;;;;;;;6.20;4.03;;;;;;;2.64;76.23;101945.88;10407608;28;20248;-70
2021/04/13 20:32:41;;;;;;;6.50;4.20;;;;;;;2.75;76.22;101945.63;10403815;28;20229;-70
2021/04/13 20:43:23;;;;;;;4.13;3.67;;;;;;;2.75;75.42;101950.94;10410278;28;20366;-70
2021/04/13 20:48:33;;;;;;;6.10;4.10;;;;;;;2.82;75.65;101947.22;10427134;28;20237;-69
2021/04/13 20:53:41;;;;;;;5.47;3.37;;;;;;;2.87;75.94;101950.63;10431801;28;20976;-69
2021/04/13 20:58:50;;;;;;;4.40;3.67;;;;;;;2.97;75.97;101949.50;10432824;28;20252;-71
2021/04/13 21:03:55;;;;;;;5.83;3.10;;;;;;;2.89;73.96;101950.63;10433626;28;20225;-70
2021/04/13 21:09:02;;;;;;;6.67;2.93;;;;;;;2.86;73.99;101945.38;10431576;28;20313;-70
2021/04/13 21:14:09;;;;;;;5.07;2.80;;;;;;;2.87;74.70;101947.97;10430439;28;20260;-72
2021/04/13 21:19:15;;;;;;;5.17;3.03;;;;;;;2.87;74.73;101947.13;10431771;28;20252;-70
2021/04/13 21:24:22;;;;;;;7.53;2.87;;;;;;;2.79;74.95;101948.16;10429780;28;20233;-70
2021/04/13 21:29:28;;;;;;;5.37;2.97;;;;;;;2.76;75.46;101958.84;10402602;28;20247;-70
2021/04/13 21:34:41;;;;;;;9.90;4.70;;;;;;;2.75;74.14;101951.81;10389267;28;20230;-70
2021/04/13 21:39:45;;;;;;;6.13;3.43;;;;;;;2.78;74.26;101961.47;10388668;28;20886;-70
2021/04/13 21:44:52;;;;;;;5.27;3.10;;;;;;;2.74;74.35;101944.78;10387194;28;20234;-70
2021/04/13 21:49:58;;;;;;;5.00;3.40;;;;;;;2.73;74.89;101950.97;10395902;28;20244;-70
2021/04/13 21:55:08;;;;;;;4.83;2.60;;;;;;;2.73;74.52;101958.06;10428389;28;20229;-70
2021/04/13 22:00:18;;;;;;;4.53;2.80;;;;;;;2.63;73.63;101954.72;10451811;28;20237;-70
2021/04/13 22:05:28;;;;;;;4.63;3.03;;;;;;;2.51;73.23;101955.00;10438214;28;20237;-70
2021/04/13 22:10:36;;;;;;;10.07;2.77;;;;;;;2.29;72.15;101946.63;10438748;28;20293;-70
2021/04/13 22:15:39;;;;;;;4.77;2.63;;;;;;;2.24;72.41;101945.84;10421516;28;20772;-70
2021/04/13 22:20:45;;;;;;;2.83;2.30;;;;;;;2.27;72.15;101941.34;10439206;28;20228;-71
2021/04/13 22:25:50;;;;;;;3.83;2.60;;;;;;;2.20;70.66;101938.88;10440876;28;20241;-72
2021/04/13 22:31:00;;;;;;;4.87;3.40;;;;;;;2.24;71.91;101940.53;10441835;28;20243;-71
2021/04/13 22:36:10;;;;;;;6.43;3.10;;;;;;;2.27;71.19;101933.38;10437910;28;20247;-72
2021/04/13 22:41:13;;;;;;;5.00;3.37;;;;;;;2.31;72.51;101934.22;10439691;28;20272;-71
2021/04/13 22:46:18;;;;;;;4.87;2.70;;;;;;;2.31;72.48;101931.56;10436459;28;20740;-71
2021/04/13 22:51:23;;;;;;;5.37;2.90;;;;;;;2.27;70.88;101933.38;10435756;28;20383;-72
2021/04/13 22:56:30;;;;;;;6.23;3.53;;;;;;;2.15;70.38;101929.22;10435712;28;20297;-70
2021/04/13 23:01:35;;;;;;;8.60;3.17;;;;;;;2.05;70.29;101925.03;10435553;28;20244;-72
2021/04/13 23:06:39;;;;;;;9.57;3.87;;;;;;;1.93;70.51;101933.25;10434003;28;20721;-71
2021/04/13 23:11:41;;;;;;;6.73;3.37;;;;;;;1.90;70.78;101930.66;10432148;28;20848;-72
2021/04/13 23:16:44;;;;;;;16.53;7.47;;;;;;;1.80;71.99;101932.59;10434163;28;20229;-70
2021/04/13 23:21:46;;;;;;;7.30;3.67;;;;;;;1.76;70.13;101930.06;10431248;28;20252;-70
2021/04/13 23:26:49;;;;;;;6.00;3.00;;;;;;;1.73;71.21;101921.28;10434922;28;20244;-71
2021/04/13 23:31:51;;;;;;;5.20;2.90;;;;;;;1.75;72.42;101920.34;10433514;28;20229;-71
2021/04/13 23:36:53;;;;;;;3.77;2.73;;;;;;;1.80;72.26;101921.13;10389241;28;21461;-71
2021/04/13 23:41:55;;;;;;;5.63;3.07;;;;;;;1.71;71.56;101912.47;10384858;28;20883;-71
2021/04/13 23:46:58;;;;;;;7.40;3.27;;;;;;;1.62;72.34;101914.41;10390026;28;20237;-70
2021/04/13 23:52:00;;;;;;;4.23;2.93;;;;;;;1.53;71.95;101911.94;10392052;28;20229;-71
2021/04/13 23:57:03;;;;;;;6.23;3.77;;;;;;;1.50;72.08;101913.75;10391131;28;21281;-70
